METAR Data
IDs: Format: Raw Decoded Include TAF

Data at: 1349 UTC 26 Feb 2021

LEAS 261330Z 10009KT 060V150 9999 BKN037 13/09 Q1031 NOSIG